Flight Track Log - Related Links

Times and Time Zones

All times are in EDT time to prevent confusion due to time zone crossing. See the RPA3381 flight status page for this flight to view local times or setup timezone preferences in your user account.

Time Position Orientation Groundspeed Altitude Reporting Facility
EDT Latitude Longitude Course Direction KTS MPH feet Rate Location/Type
Mon 09:01:30 PM 38.8333 -77.0333 247° West 153 176 1,100  Level Potomac TRACON
Mon 09:02:30 PM 38.7833 -77.0333 180° South 201 231 2,700 1,900 Climbing Potomac TRACON
Mon 09:03:30 PM 38.7500 -77.1167 243° Southwest 277 319 4,900 2,529 Climbing Potomac TRACON
Mon 09:04:31 PM 38.7333 -77.2000 256° West 281 323 7,800 2,777 Climbing Potomac TRACON
Mon 09:05:31 PM 38.7167 -77.3000 258° West 291 335 10,500 1,900 Climbing Potomac TRACON
Mon 09:06:00 PM 38.5914 -77.5425 247° West  Level FlightAware Approximate
Mon 09:06:31 PM 38.6833 -77.4000 247° West 336 387 11,600  Level Potomac TRACON
Mon 09:08:36 PM 38.5669 -77.6178 236° Southwest 356 410 15,800 2,044 Climbing Washington Center
Mon 09:09:33 PM 38.5067 -77.7300 236° Southwest 374 430 17,800 1,881 Climbing Washington Center
Mon 09:10:34 PM 38.4461 -77.8450 236° Southwest 385 443 19,500 1,721 Climbing Washington Center
Mon 09:11:35 PM 38.3856 -77.9650 237° Southwest 397 457 21,300 1,714 Climbing Washington Center
Mon 09:12:33 PM 38.3306 -78.0956 242° Southwest 407 468 22,900 1,361 Climbing Washington Center
Mon 09:13:34 PM 38.2756 -78.2286 242° Southwest 418 481 24,000 550 Climbing Washington Center
Mon 09:14:33 PM 38.2186 -78.3614 241° Southwest 430 495 24,000  Level Washington Center
Mon 09:15:33 PM 38.1633 -78.4942 242° Southwest 430 495 24,000  Level Washington Center
Mon 09:16:33 PM 38.1097 -78.6344 244° Southwest 430 495 24,000  Level Washington Center
Mon 09:17:34 PM 38.0519 -78.7694 242° Southwest 430 495 24,000  Level Washington Center
Mon 09:18:35 PM 37.9942 -78.9039 241° Southwest 430 495 24,000  Level Washington Center
Mon 09:19:33 PM 37.9339 -79.0381 240° Southwest 435 501 24,000  Level Washington Center
Mon 09:20:34 PM 37.8736 -79.1722 240° Southwest 435 501 24,000  Level Washington Center
Mon 09:21:35 PM 37.8072 -79.3031 237° Southwest 435 501 24,000  Level Washington Center
Mon 09:22:35 PM 37.7492 -79.4211 238° Southwest 441 507 24,000  Level Washington Center
Mon 09:23:33 PM 37.6736 -79.5642 236° Southwest 441 507 24,000  Level Washington Center
Mon 09:24:34 PM 37.6156 -79.6819 238° Southwest 447 514 24,000  Level Washington Center
Mon 09:25:34 PM 37.5439 -79.8247 238° Southwest 447 514 24,000  Level Washington Center
Mon 09:26:34 PM 37.4808 -79.9494 238° Southwest 459 528 24,000  Level Washington Center
Mon 09:27:35 PM 37.4133 -80.0814 237° Southwest 459 528 24,000  Level Washington Center
Mon 09:28:56 PM 37.3200 -80.2603 237° Southwest 456 525 24,000  Level Atlanta Center
Mon 09:29:56 PM 37.2531 -80.3886 237° Southwest 456 525 24,000  Level Atlanta Center
Mon 09:30:56 PM 37.1858 -80.5192 237° Southwest 451 519 24,000  Level Atlanta Center
Mon 09:31:56 PM 37.1206 -80.6447 237° Southwest 451 519 24,000  Level Atlanta Center
Mon 09:32:56 PM 37.0597 -80.7797 241° Southwest 445 512 24,000  Level Atlanta Center
Mon 09:33:56 PM 37.0114 -80.9222 247° West 445 512 24,000  Level Atlanta Center
Mon 09:34:56 PM 36.9606 -81.0619 246° West 445 512 24,000  Level Atlanta Center
Mon 09:35:56 PM 36.9097 -81.2014 246° West 445 512 24,000  Level Atlanta Center
Mon 09:36:56 PM 36.8586 -81.3381 245° Southwest 445 512 24,000  Level Atlanta Center
Mon 09:37:56 PM 36.8094 -81.4772 246° West 445 512 24,000  Level Atlanta Center
Mon 09:38:56 PM 36.7664 -81.6133 248° West 439 505 24,000  Level Atlanta Center
Mon 09:39:56 PM 36.7189 -81.7442 246° West 428 493 24,000  Level Atlanta Center
Mon 09:40:56 PM 36.6731 -81.8672 245° Southwest 408 470 24,000  Level Atlanta Center
Mon 09:41:56 PM 36.6272 -81.9925 246° West 401 461 24,000  Level Atlanta Center
Mon 09:42:56 PM 36.5772 -82.1231 245° Southwest 412 474 24,000  Level Atlanta Center
Mon 09:43:56 PM 36.5272 -82.2561 245° Southwest 417 480 24,000  Level Atlanta Center
Mon 09:44:56 PM 36.4828 -82.3758 245° Southwest 422 486 24,000  Level Atlanta Center
Mon 09:45:56 PM 36.4244 -82.5319 245° Southwest 422 486 24,000  Level Atlanta Center
Mon 09:46:56 PM 36.3739 -82.6644 245° Southwest 422 486 24,000  Level Atlanta Center
Mon 09:48:56 PM 36.2764 -82.9314 246° West 422 486 24,000  Level Atlanta Center
Mon 09:49:56 PM 36.2233 -83.0633 244° Southwest 422 486 24,000  Level Atlanta Center
Mon 09:50:56 PM 36.1742 -83.1925 245° Southwest 422 486 24,000  Level Atlanta Center
Mon 09:51:56 PM 36.1250 -83.3242 245° Southwest 422 486 24,000  Level Atlanta Center
Mon 09:52:56 PM 36.0736 -83.4556 244° Southwest 422 486 24,000  Level Atlanta Center
Mon 09:53:56 PM 36.0261 -83.5767 244° Southwest 422 486 24,000 -200 Level Atlanta Center
Mon 09:54:56 PM 35.9786 -83.7078 246° West 422 486 23,600 -700 Descending Atlanta Center
Mon 09:55:56 PM 35.9267 -83.8386 244° Southwest 422 486 22,600 -800 Descending Atlanta Center
Mon 09:56:56 PM 35.8767 -83.9669 244° Southwest 422 486 22,000 -300 Descending Atlanta Center
Mon 09:57:56 PM 35.8289 -84.0925 245° Southwest 422 486 22,000  Level Atlanta Center
Mon 09:58:56 PM 35.7767 -84.2256 244° Southwest 422 486 22,000  Level Atlanta Center
Mon 09:59:56 PM 35.7242 -84.3533 243° Southwest 422 486 22,000  Level Atlanta Center
Mon 10:00:56 PM 35.6758 -84.4836 245° Southwest 422 486 22,000  Level Atlanta Center
Mon 10:01:56 PM 35.6211 -84.6111 242° Southwest 422 486 22,000  Level Atlanta Center
Mon 10:02:56 PM 35.5703 -84.7408 244° Southwest 422 486 22,000  Level Atlanta Center
Mon 10:04:45 PM 35.4769 -84.9797 244° Southwest 422 486 22,000  Level Memphis Center
Mon 10:05:46 PM 35.4247 -85.1097 244° Southwest 422 486 22,000  Level Memphis Center
Mon 10:06:48 PM 35.3719 -85.2408 244° Southwest 423 487 22,000 -244 Level Memphis Center
Mon 10:07:49 PM 35.3189 -85.3711 244° Southwest 423 487 21,500 -732 Descending Memphis Center
Mon 10:08:51 PM 35.2669 -85.4994 244° Southwest 423 487 20,500 -976 Descending Memphis Center
Mon 10:09:52 PM 35.2144 -85.6269 243° Southwest 422 486 19,500 -984 Descending Memphis Center
Mon 10:10:53 PM 35.1642 -85.7519 244° Southwest 415 478 18,500 -1,366 Descending Memphis Center
Mon 10:11:55 PM 35.1036 -85.8972 243° Southwest 405 466 16,700 -1,854 Descending Memphis Center
Mon 10:12:56 PM 35.0556 -86.0161 244° Southwest 395 455 14,700 -1,967 Descending Memphis Center
Mon 10:13:57 PM 35.0083 -86.1278 243° Southwest 377 434 12,700 -1,854 Descending Memphis Center
Mon 10:14:59 PM 34.9656 -86.2319 243° Southwest 364 419 10,900 -1,463 Descending Memphis Center
Mon 10:16:00 PM 34.9250 -86.3289 243° Southwest 332 382 9,700 -1,230 Descending Memphis Center
Mon 10:17:01 PM 34.8903 -86.4211 245° Southwest 309 356 8,400 -1,475 Descending Memphis Center
Mon 10:18:02 PM 34.8753 -86.5194 259° West 297 342 6,700 -1,561 Descending Memphis Center
Mon 10:19:04 PM 34.8583 -86.6133 258° West 291 335 5,200 -1,268 Descending Memphis Center
Mon 10:20:05 PM 34.8394 -86.7150 257° West 271 312 4,100 -885 Descending Memphis Center
Mon 10:21:06 PM 34.8175 -86.7747 246° West 230 265 3,400 -689 Descending Memphis Center
Mon 10:22:07 PM 34.7625 -86.7794 184° South 215 247 2,700 -780 Descending Memphis Center
Mon 10:23:09 PM 34.7131 -86.7803 181° South 195 224 1,800 -780 Descending Memphis Center
Mon 10:24:10 PM 34.6744 -86.7814 181° South 169 194 1,100 -541 Descending Memphis Center
Mon 10:25:11 PM 34.6319 -86.7828 182° South 155 178 700 -393 Descending Memphis Center
Mon 10:27:00 PM 34.6333 -86.7667 North  Level FlightAware Approximate
Mon 10:34:00 PM 34.6372 -86.7751 North  Level Estimated

Login

Don't have an account? Register now (free) for customized features, flight alerts, and more!